sensor_id;sensor_type;location;lat;lon;timestamp;P1;durP1;ratioP1;P2;durP2;ratioP2
5878;SDS011;2965;42.640;23.370;2022-08-03T00:00:58;3.03;;;2.87;;
5878;SDS011;2965;42.640;23.370;2022-08-03T00:03:24;2.37;;;2.17;;
5878;SDS011;2965;42.640;23.370;2022-08-03T00:05:49;2.13;;;1.77;;
5878;SDS011;2965;42.640;23.370;2022-08-03T00:08:14;2.40;;;2.30;;
5878;SDS011;2965;42.640;23.370;2022-08-03T00:10:40;4.30;;;2.10;;
5878;SDS011;2965;42.640;23.370;2022-08-03T00:13:05;2.43;;;2.20;;
5878;SDS011;2965;42.640;23.370;2022-08-03T00:15:31;2.00;;;1.90;;
5878;SDS011;2965;42.640;23.370;2022-08-03T00:17:56;2.30;;;2.10;;
5878;SDS011;2965;42.640;23.370;2022-08-03T00:20:22;2.97;;;1.90;;
5878;SDS011;2965;42.640;23.370;2022-08-03T00:22:48;1.90;;;1.80;;
5878;SDS011;2965;42.640;23.370;2022-08-03T00:25:14;2.17;;;2.07;;
5878;SDS011;2965;42.640;23.370;2022-08-03T00:27:39;2.27;;;2.07;;
5878;SDS011;2965;42.640;23.370;2022-08-03T00:30:05;2.10;;;2.00;;
5878;SDS011;2965;42.640;23.370;2022-08-03T00:32:31;3.40;;;2.13;;
5878;SDS011;2965;42.640;23.370;2022-08-03T00:34:56;2.20;;;2.10;;
5878;SDS011;2965;42.640;23.370;2022-08-03T00:37:22;2.93;;;1.90;;
5878;SDS011;2965;42.640;23.370;2022-08-03T00:39:47;2.30;;;2.20;;
5878;SDS011;2965;42.640;23.370;2022-08-03T00:42:13;2.50;;;2.40;;
5878;SDS011;2965;42.640;23.370;2022-08-03T00:44:39;1.87;;;1.77;;
5878;SDS011;2965;42.640;23.370;2022-08-03T00:47:06;2.23;;;2.10;;
5878;SDS011;2965;42.640;23.370;2022-08-03T00:49:32;2.23;;;2.13;;
5878;SDS011;2965;42.640;23.370;2022-08-03T00:51:58;2.23;;;2.13;;
5878;SDS011;2965;42.640;23.370;2022-08-03T00:54:24;1.87;;;1.77;;
5878;SDS011;2965;42.640;23.370;2022-08-03T00:56:50;2.80;;;2.60;;
5878;SDS011;2965;42.640;23.370;2022-08-03T00:59:16;2.10;;;2.00;;
5878;SDS011;2965;42.640;23.370;2022-08-03T01:01:42;2.13;;;2.03;;
5878;SDS011;2965;42.640;23.370;2022-08-03T01:04:08;2.30;;;2.20;;
5878;SDS011;2965;42.640;23.370;2022-08-03T01:07:36;2.40;;;2.10;;
5878;SDS011;2965;42.640;23.370;2022-08-03T01:12:19;2.43;;;2.27;;
5878;SDS011;2965;42.640;23.370;2022-08-03T01:14:54;2.30;;;2.20;;
5878;SDS011;2965;42.640;23.370;2022-08-03T01:17:39;2.13;;;1.70;;
5878;SDS011;2965;42.640;23.370;2022-08-03T01:20:18;1.90;;;1.80;;
5878;SDS011;2965;42.640;23.370;2022-08-03T01:31:00;2.20;;;2.10;;
5878;SDS011;2965;42.640;23.370;2022-08-03T01:33:34;2.57;;;2.00;;
5878;SDS011;2965;42.640;23.370;2022-08-03T01:36:06;2.30;;;2.20;;
5878;SDS011;2965;42.640;23.370;2022-08-03T01:38:40;2.03;;;1.93;;
5878;SDS011;2965;42.640;23.370;2022-08-03T01:41:11;2.53;;;2.43;;
5878;SDS011;2965;42.640;23.370;2022-08-03T01:43:40;5.37;;;1.90;;
5878;SDS011;2965;42.640;23.370;2022-08-03T01:46:09;2.63;;;2.53;;
5878;SDS011;2965;42.640;23.370;2022-08-03T01:48:36;7.33;;;2.00;;
5878;SDS011;2965;42.640;23.370;2022-08-03T01:51:07;2.23;;;2.13;;
5878;SDS011;2965;42.640;23.370;2022-08-03T01:53:33;2.80;;;2.57;;
5878;SDS011;2965;42.640;23.370;2022-08-03T01:56:00;1.90;;;1.80;;
5878;SDS011;2965;42.640;23.370;2022-08-03T01:58:27;2.03;;;1.93;;
5878;SDS011;2965;42.640;23.370;2022-08-03T02:00:55;2.20;;;2.00;;
5878;SDS011;2965;42.640;23.370;2022-08-03T02:03:24;2.70;;;2.60;;
5878;SDS011;2965;42.640;23.370;2022-08-03T02:05:52;1.90;;;1.80;;
5878;SDS011;2965;42.640;23.370;2022-08-03T02:08:21;2.70;;;2.50;;
5878;SDS011;2965;42.640;23.370;2022-08-03T02:10:49;2.17;;;2.07;;
5878;SDS011;2965;42.640;23.370;2022-08-03T02:13:18;2.43;;;2.33;;
5878;SDS011;2965;42.640;23.370;2022-08-03T02:15:46;2.23;;;2.03;;
5878;SDS011;2965;42.640;23.370;2022-08-03T02:18:13;7.50;;;2.40;;
5878;SDS011;2965;42.640;23.370;2022-08-03T02:20:40;2.27;;;2.17;;
5878;SDS011;2965;42.640;23.370;2022-08-03T02:23:08;2.37;;;2.27;;
5878;SDS011;2965;42.640;23.370;2022-08-03T02:25:34;3.10;;;2.60;;
5878;SDS011;2965;42.640;23.370;2022-08-03T02:28:18;3.07;;;2.97;;
5878;SDS011;2965;42.640;23.370;2022-08-03T02:30:49;2.97;;;2.77;;
5878;SDS011;2965;42.640;23.370;2022-08-03T02:33:20;2.60;;;2.50;;
5878;SDS011;2965;42.640;23.370;2022-08-03T02:35:50;8.53;;;3.10;;
5878;SDS011;2965;42.640;23.370;2022-08-03T02:38:19;2.40;;;2.30;;
5878;SDS011;2965;42.640;23.370;2022-08-03T02:40:47;2.50;;;2.40;;
5878;SDS011;2965;42.640;23.370;2022-08-03T02:43:16;3.00;;;2.77;;
5878;SDS011;2965;42.640;23.370;2022-08-03T02:45:46;3.77;;;2.47;;
5878;SDS011;2965;42.640;23.370;2022-08-03T02:48:15;2.80;;;2.70;;
5878;SDS011;2965;42.640;23.370;2022-08-03T02:50:44;2.93;;;2.83;;
5878;SDS011;2965;42.640;23.370;2022-08-03T02:53:11;3.10;;;2.90;;
5878;SDS011;2965;42.640;23.370;2022-08-03T02:55:38;2.97;;;2.87;;
5878;SDS011;2965;42.640;23.370;2022-08-03T02:58:04;2.80;;;2.70;;
5878;SDS011;2965;42.640;23.370;2022-08-03T03:00:31;2.63;;;2.43;;
5878;SDS011;2965;42.640;23.370;2022-08-03T03:02:59;6.30;;;2.83;;
5878;SDS011;2965;42.640;23.370;2022-08-03T03:05:26;2.90;;;2.80;;
5878;SDS011;2965;42.640;23.370;2022-08-03T03:07:52;5.83;;;2.77;;
5878;SDS011;2965;42.640;23.370;2022-08-03T03:10:20;3.00;;;2.80;;
5878;SDS011;2965;42.640;23.370;2022-08-03T03:12:47;2.90;;;2.77;;
5878;SDS011;2965;42.640;23.370;2022-08-03T03:15:15;2.97;;;2.77;;
5878;SDS011;2965;42.640;23.370;2022-08-03T03:17:41;3.03;;;2.90;;
5878;SDS011;2965;42.640;23.370;2022-08-03T03:20:07;3.63;;;3.13;;
5878;SDS011;2965;42.640;23.370;2022-08-03T03:22:33;3.23;;;3.10;;
5878;SDS011;2965;42.640;23.370;2022-08-03T03:25:00;3.30;;;3.20;;
5878;SDS011;2965;42.640;23.370;2022-08-03T03:27:26;4.23;;;2.87;;
5878;SDS011;2965;42.640;23.370;2022-08-03T03:29:51;2.73;;;2.53;;
5878;SDS011;2965;42.640;23.370;2022-08-03T03:32:17;2.80;;;2.70;;
5878;SDS011;2965;42.640;23.370;2022-08-03T03:34:43;3.50;;;3.40;;
5878;SDS011;2965;42.640;23.370;2022-08-03T03:37:09;4.27;;;3.13;;
5878;SDS011;2965;42.640;23.370;2022-08-03T03:39:34;2.93;;;2.83;;
5878;SDS011;2965;42.640;23.370;2022-08-03T03:42:00;2.87;;;2.67;;
5878;SDS011;2965;42.640;23.370;2022-08-03T03:44:27;2.73;;;2.63;;
5878;SDS011;2965;42.640;23.370;2022-08-03T03:46:54;3.63;;;2.80;;
5878;SDS011;2965;42.640;23.370;2022-08-03T03:49:20;3.07;;;2.97;;
5878;SDS011;2965;42.640;23.370;2022-08-03T03:51:45;3.47;;;2.63;;
5878;SDS011;2965;42.640;23.370;2022-08-03T03:54:11;2.73;;;2.63;;
5878;SDS011;2965;42.640;23.370;2022-08-03T03:56:36;3.17;;;2.97;;
5878;SDS011;2965;42.640;23.370;2022-08-03T03:59:02;2.70;;;2.60;;
5878;SDS011;2965;42.640;23.370;2022-08-03T04:01:28;3.37;;;3.27;;
5878;SDS011;2965;42.640;23.370;2022-08-03T04:03:54;2.97;;;2.87;;
5878;SDS011;2965;42.640;23.370;2022-08-03T04:06:20;3.30;;;3.20;;
5878;SDS011;2965;42.640;23.370;2022-08-03T04:09:04;3.97;;;3.67;;
5878;SDS011;2965;42.640;23.370;2022-08-03T04:11:51;5.23;;;2.67;;
5878;SDS011;2965;42.640;23.370;2022-08-03T04:14:20;3.17;;;3.07;;
5878;SDS011;2965;42.640;23.370;2022-08-03T04:16:50;3.43;;;3.33;;
5878;SDS011;2965;42.640;23.370;2022-08-03T04:19:25;3.90;;;3.70;;
5878;SDS011;2965;42.640;23.370;2022-08-03T04:21:56;3.50;;;3.40;;
5878;SDS011;2965;42.640;23.370;2022-08-03T04:24:36;4.50;;;4.10;;
5878;SDS011;2965;42.640;23.370;2022-08-03T04:27:05;4.43;;;4.10;;
5878;SDS011;2965;42.640;23.370;2022-08-03T04:29:34;4.67;;;4.40;;
5878;SDS011;2965;42.640;23.370;2022-08-03T04:32:04;6.23;;;4.47;;
5878;SDS011;2965;42.640;23.370;2022-08-03T04:34:30;4.47;;;4.27;;
5878;SDS011;2965;42.640;23.370;2022-08-03T04:36:57;5.80;;;4.90;;
5878;SDS011;2965;42.640;23.370;2022-08-03T04:39:29;4.03;;;3.80;;
5878;SDS011;2965;42.640;23.370;2022-08-03T04:42:00;4.33;;;4.13;;
5878;SDS011;2965;42.640;23.370;2022-08-03T04:44:29;4.70;;;4.40;;
5878;SDS011;2965;42.640;23.370;2022-08-03T04:46:58;6.83;;;4.27;;
5878;SDS011;2965;42.640;23.370;2022-08-03T04:49:24;7.47;;;4.77;;
5878;SDS011;2965;42.640;23.370;2022-08-03T04:51:50;4.60;;;4.30;;
5878;SDS011;2965;42.640;23.370;2022-08-03T04:54:17;5.03;;;4.40;;
5878;SDS011;2965;42.640;23.370;2022-08-03T04:56:42;5.17;;;4.77;;
5878;SDS011;2965;42.640;23.370;2022-08-03T04:59:08;5.50;;;5.00;;
5878;SDS011;2965;42.640;23.370;2022-08-03T05:01:34;4.30;;;4.10;;
5878;SDS011;2965;42.640;23.370;2022-08-03T05:04:00;5.93;;;4.87;;
5878;SDS011;2965;42.640;23.370;2022-08-03T05:06:26;5.10;;;4.80;;
5878;SDS011;2965;42.640;23.370;2022-08-03T05:08:51;5.10;;;4.80;;
5878;SDS011;2965;42.640;23.370;2022-08-03T05:11:17;5.27;;;4.93;;
5878;SDS011;2965;42.640;23.370;2022-08-03T05:13:43;5.00;;;4.80;;
5878;SDS011;2965;42.640;23.370;2022-08-03T05:16:09;4.10;;;3.90;;
5878;SDS011;2965;42.640;23.370;2022-08-03T05:18:35;4.80;;;4.40;;
5878;SDS011;2965;42.640;23.370;2022-08-03T05:21:01;4.33;;;4.23;;
5878;SDS011;2965;42.640;23.370;2022-08-03T05:23:27;8.10;;;3.93;;
5878;SDS011;2965;42.640;23.370;2022-08-03T05:25:52;3.70;;;3.60;;
5878;SDS011;2965;42.640;23.370;2022-08-03T05:28:17;5.67;;;4.20;;
5878;SDS011;2965;42.640;23.370;2022-08-03T05:30:43;4.70;;;4.47;;
5878;SDS011;2965;42.640;23.370;2022-08-03T05:33:08;7.83;;;4.30;;
5878;SDS011;2965;42.640;23.370;2022-08-03T05:35:35;4.63;;;4.30;;
5878;SDS011;2965;42.640;23.370;2022-08-03T05:38:03;14.63;;;5.07;;
5878;SDS011;2965;42.640;23.370;2022-08-03T05:40:28;4.70;;;4.43;;
5878;SDS011;2965;42.640;23.370;2022-08-03T05:42:54;7.70;;;5.10;;
5878;SDS011;2965;42.640;23.370;2022-08-03T05:45:19;19.03;;;5.20;;
5878;SDS011;2965;42.640;23.370;2022-08-03T05:47:45;5.03;;;4.73;;
5878;SDS011;2965;42.640;23.370;2022-08-03T05:50:11;5.50;;;5.00;;
5878;SDS011;2965;42.640;23.370;2022-08-03T05:52:37;10.80;;;4.60;;
5878;SDS011;2965;42.640;23.370;2022-08-03T05:55:06;5.47;;;5.17;;
5878;SDS011;2965;42.640;23.370;2022-08-03T05:57:32;5.93;;;5.43;;
5878;SDS011;2965;42.640;23.370;2022-08-03T05:59:58;5.13;;;4.60;;
5878;SDS011;2965;42.640;23.370;2022-08-03T06:02:24;4.87;;;4.63;;
5878;SDS011;2965;42.640;23.370;2022-08-03T06:04:50;11.43;;;5.57;;
5878;SDS011;2965;42.640;23.370;2022-08-03T06:07:16;11.10;;;5.33;;
5878;SDS011;2965;42.640;23.370;2022-08-03T06:09:41;5.07;;;4.67;;
5878;SDS011;2965;42.640;23.370;2022-08-03T06:12:07;5.40;;;4.87;;
5878;SDS011;2965;42.640;23.370;2022-08-03T06:14:32;9.13;;;4.80;;
5878;SDS011;2965;42.640;23.370;2022-08-03T06:16:58;9.43;;;5.70;;
5878;SDS011;2965;42.640;23.370;2022-08-03T06:19:23;5.40;;;5.00;;
5878;SDS011;2965;42.640;23.370;2022-08-03T06:21:49;6.20;;;5.43;;
5878;SDS011;2965;42.640;23.370;2022-08-03T06:24:15;4.60;;;4.33;;
5878;SDS011;2965;42.640;23.370;2022-08-03T06:26:40;4.93;;;4.73;;
5878;SDS011;2965;42.640;23.370;2022-08-03T06:29:05;6.37;;;5.30;;
5878;SDS011;2965;42.640;23.370;2022-08-03T06:31:31;5.57;;;5.27;;
5878;SDS011;2965;42.640;23.370;2022-08-03T06:33:56;13.07;;;6.00;;
5878;SDS011;2965;42.640;23.370;2022-08-03T06:36:22;5.70;;;5.30;;
5878;SDS011;2965;42.640;23.370;2022-08-03T06:38:49;9.87;;;4.80;;
5878;SDS011;2965;42.640;23.370;2022-08-03T06:41:14;5.53;;;5.03;;
5878;SDS011;2965;42.640;23.370;2022-08-03T06:43:39;10.77;;;4.90;;
5878;SDS011;2965;42.640;23.370;2022-08-03T06:46:06;5.63;;;5.30;;
5878;SDS011;2965;42.640;23.370;2022-08-03T06:48:31;6.93;;;5.13;;
5878;SDS011;2965;42.640;23.370;2022-08-03T06:50:57;8.20;;;4.50;;
5878;SDS011;2965;42.640;23.370;2022-08-03T06:53:23;5.80;;;4.70;;
5878;SDS011;2965;42.640;23.370;2022-08-03T06:55:48;5.20;;;4.70;;
5878;SDS011;2965;42.640;23.370;2022-08-03T06:58:13;5.77;;;5.37;;
5878;SDS011;2965;42.640;23.370;2022-08-03T07:00:39;11.13;;;5.10;;
5878;SDS011;2965;42.640;23.370;2022-08-03T07:03:04;6.30;;;5.80;;
5878;SDS011;2965;42.640;23.370;2022-08-03T07:05:30;4.70;;;4.47;;
5878;SDS011;2965;42.640;23.370;2022-08-03T07:07:57;6.20;;;4.90;;
5878;SDS011;2965;42.640;23.370;2022-08-03T07:10:23;5.10;;;4.87;;
5878;SDS011;2965;42.640;23.370;2022-08-03T07:12:49;6.10;;;4.77;;
5878;SDS011;2965;42.640;23.370;2022-08-03T07:15:14;4.83;;;4.50;;
5878;SDS011;2965;42.640;23.370;2022-08-03T07:17:40;6.60;;;5.03;;
5878;SDS011;2965;42.640;23.370;2022-08-03T07:20:06;5.70;;;5.10;;
5878;SDS011;2965;42.640;23.370;2022-08-03T07:22:32;8.37;;;5.30;;
5878;SDS011;2965;42.640;23.370;2022-08-03T07:24:59;12.57;;;5.80;;
5878;SDS011;2965;42.640;23.370;2022-08-03T07:27:25;7.53;;;4.97;;
5878;SDS011;2965;42.640;23.370;2022-08-03T07:29:52;10.60;;;5.63;;
5878;SDS011;2965;42.640;23.370;2022-08-03T07:32:18;6.30;;;5.33;;
5878;SDS011;2965;42.640;23.370;2022-08-03T07:34:44;4.90;;;4.60;;
5878;SDS011;2965;42.640;23.370;2022-08-03T07:37:09;4.67;;;4.47;;
5878;SDS011;2965;42.640;23.370;2022-08-03T07:39:35;5.40;;;5.03;;
5878;SDS011;2965;42.640;23.370;2022-08-03T07:42:00;5.80;;;5.40;;
5878;SDS011;2965;42.640;23.370;2022-08-03T07:44:26;7.43;;;4.80;;
5878;SDS011;2965;42.640;23.370;2022-08-03T07:46:51;6.57;;;5.97;;
5878;SDS011;2965;42.640;23.370;2022-08-03T07:49:16;5.30;;;4.80;;
5878;SDS011;2965;42.640;23.370;2022-08-03T07:51:42;5.80;;;5.40;;
5878;SDS011;2965;42.640;23.370;2022-08-03T07:54:07;6.60;;;5.30;;
5878;SDS011;2965;42.640;23.370;2022-08-03T07:56:34;7.43;;;5.07;;
5878;SDS011;2965;42.640;23.370;2022-08-03T07:59:00;6.83;;;6.20;;
5878;SDS011;2965;42.640;23.370;2022-08-03T08:01:27;6.23;;;5.63;;
5878;SDS011;2965;42.640;23.370;2022-08-03T08:03:53;6.60;;;6.00;;
5878;SDS011;2965;42.640;23.370;2022-08-03T08:06:19;4.87;;;4.70;;
5878;SDS011;2965;42.640;23.370;2022-08-03T08:08:45;4.63;;;4.43;;
5878;SDS011;2965;42.640;23.370;2022-08-03T08:11:11;4.57;;;4.37;;
5878;SDS011;2965;42.640;23.370;2022-08-03T08:13:36;5.47;;;5.17;;
5878;SDS011;2965;42.640;23.370;2022-08-03T08:16:02;11.43;;;5.20;;
5878;SDS011;2965;42.640;23.370;2022-08-03T08:18:29;14.33;;;5.50;;
5878;SDS011;2965;42.640;23.370;2022-08-03T08:20:54;5.23;;;5.03;;
5878;SDS011;2965;42.640;23.370;2022-08-03T08:23:20;7.63;;;4.70;;
5878;SDS011;2965;42.640;23.370;2022-08-03T08:25:51;4.23;;;4.13;;
5878;SDS011;2965;42.640;23.370;2022-08-03T08:28:18;5.13;;;4.63;;
5878;SDS011;2965;42.640;23.370;2022-08-03T08:30:44;6.50;;;5.90;;
5878;SDS011;2965;42.640;23.370;2022-08-03T08:33:10;5.37;;;4.90;;
5878;SDS011;2965;42.640;23.370;2022-08-03T08:35:36;5.20;;;4.80;;
5878;SDS011;2965;42.640;23.370;2022-08-03T08:38:02;4.90;;;4.60;;
5878;SDS011;2965;42.640;23.370;2022-08-03T08:40:27;4.73;;;4.43;;
5878;SDS011;2965;42.640;23.370;2022-08-03T08:42:53;4.60;;;4.30;;
5878;SDS011;2965;42.640;23.370;2022-08-03T08:45:19;9.43;;;5.10;;
5878;SDS011;2965;42.640;23.370;2022-08-03T08:47:46;5.60;;;5.20;;
5878;SDS011;2965;42.640;23.370;2022-08-03T08:50:13;5.47;;;4.40;;
5878;SDS011;2965;42.640;23.370;2022-08-03T08:52:43;7.13;;;6.07;;
5878;SDS011;2965;42.640;23.370;2022-08-03T08:55:12;4.93;;;4.63;;
5878;SDS011;2965;42.640;23.370;2022-08-03T08:57:44;4.83;;;4.60;;
5878;SDS011;2965;42.640;23.370;2022-08-03T09:00:13;5.87;;;5.47;;
5878;SDS011;2965;42.640;23.370;2022-08-03T09:02:39;6.83;;;5.20;;
5878;SDS011;2965;42.640;23.370;2022-08-03T09:05:08;4.40;;;4.10;;
5878;SDS011;2965;42.640;23.370;2022-08-03T09:07:44;5.17;;;4.87;;
5878;SDS011;2965;42.640;23.370;2022-08-03T09:10:11;4.80;;;4.50;;
5878;SDS011;2965;42.640;23.370;2022-08-03T09:12:40;4.80;;;4.50;;
5878;SDS011;2965;42.640;23.370;2022-08-03T09:17:45;4.97;;;4.87;;
5878;SDS011;2965;42.640;23.370;2022-08-03T09:20:11;4.43;;;4.13;;
5878;SDS011;2965;42.640;23.370;2022-08-03T09:25:33;5.87;;;4.40;;
5878;SDS011;2965;42.640;23.370;2022-08-03T09:30:45;4.57;;;4.00;;
5878;SDS011;2965;42.640;23.370;2022-08-03T09:33:23;3.53;;;3.00;;
5878;SDS011;2965;42.640;23.370;2022-08-03T09:35:49;4.23;;;3.80;;
5878;SDS011;2965;42.640;23.370;2022-08-03T09:38:16;4.47;;;4.17;;
5878;SDS011;2965;42.640;23.370;2022-08-03T09:40:44;3.43;;;3.33;;
5878;SDS011;2965;42.640;23.370;2022-08-03T09:43:10;4.13;;;3.83;;
5878;SDS011;2965;42.640;23.370;2022-08-03T09:45:37;8.73;;;3.63;;
5878;SDS011;2965;42.640;23.370;2022-08-03T09:50:50;3.57;;;3.47;;
5878;SDS011;2965;42.640;23.370;2022-08-03T09:53:19;3.63;;;3.53;;
5878;SDS011;2965;42.640;23.370;2022-08-03T09:55:56;6.33;;;3.70;;
5878;SDS011;2965;42.640;23.370;2022-08-03T09:58:23;3.33;;;3.23;;
5878;SDS011;2965;42.640;23.370;2022-08-03T10:03:23;3.43;;;3.10;;
5878;SDS011;2965;42.640;23.370;2022-08-03T10:05:50;3.43;;;3.23;;
5878;SDS011;2965;42.640;23.370;2022-08-03T10:08:16;4.20;;;3.20;;
5878;SDS011;2965;42.640;23.370;2022-08-03T10:10:44;3.20;;;3.10;;
5878;SDS011;2965;42.640;23.370;2022-08-03T10:13:12;3.70;;;3.60;;
5878;SDS011;2965;42.640;23.370;2022-08-03T10:15:38;3.90;;;3.80;;
5878;SDS011;2965;42.640;23.370;2022-08-03T10:18:05;4.80;;;4.40;;
5878;SDS011;2965;42.640;23.370;2022-08-03T10:20:30;3.90;;;3.60;;
5878;SDS011;2965;42.640;23.370;2022-08-03T10:23:00;3.83;;;3.73;;
5878;SDS011;2965;42.640;23.370;2022-08-03T10:25:27;6.57;;;4.00;;
5878;SDS011;2965;42.640;23.370;2022-08-03T10:27:55;3.00;;;2.90;;
5878;SDS011;2965;42.640;23.370;2022-08-03T10:30:22;3.93;;;3.77;;
5878;SDS011;2965;42.640;23.370;2022-08-03T10:32:51;3.20;;;3.10;;
5878;SDS011;2965;42.640;23.370;2022-08-03T10:35:21;4.07;;;3.67;;
5878;SDS011;2965;42.640;23.370;2022-08-03T10:40:14;3.77;;;3.47;;
5878;SDS011;2965;42.640;23.370;2022-08-03T10:42:44;3.50;;;3.30;;
5878;SDS011;2965;42.640;23.370;2022-08-03T10:45:14;5.87;;;3.63;;
5878;SDS011;2965;42.640;23.370;2022-08-03T10:47:43;6.63;;;4.10;;
5878;SDS011;2965;42.640;23.370;2022-08-03T10:50:10;4.37;;;4.17;;
5878;SDS011;2965;42.640;23.370;2022-08-03T10:52:52;3.17;;;3.07;;
5878;SDS011;2965;42.640;23.370;2022-08-03T10:55:31;3.77;;;3.67;;
5878;SDS011;2965;42.640;23.370;2022-08-03T11:01:15;3.23;;;3.13;;
5878;SDS011;2965;42.640;23.370;2022-08-03T11:06:21;3.77;;;3.67;;
5878;SDS011;2965;42.640;23.370;2022-08-03T11:08:49;2.93;;;2.83;;
5878;SDS011;2965;42.640;23.370;2022-08-03T11:11:38;3.30;;;3.20;;
5878;SDS011;2965;42.640;23.370;2022-08-03T11:14:07;2.73;;;2.63;;
5878;SDS011;2965;42.640;23.370;2022-08-03T11:16:35;3.00;;;2.90;;
5878;SDS011;2965;42.640;23.370;2022-08-03T11:19:03;2.73;;;2.63;;
5878;SDS011;2965;42.640;23.370;2022-08-03T11:29:48;2.90;;;2.80;;
5878;SDS011;2965;42.640;23.370;2022-08-03T11:33:00;2.57;;;2.30;;
5878;SDS011;2965;42.640;23.370;2022-08-03T11:35:15;2.77;;;2.43;;
5878;SDS011;2965;42.640;23.370;2022-08-03T11:46:07;2.90;;;2.80;;
5878;SDS011;2965;42.640;23.370;2022-08-03T11:48:38;3.30;;;3.20;;
5878;SDS011;2965;42.640;23.370;2022-08-03T11:51:24;3.03;;;2.93;;
5878;SDS011;2965;42.640;23.370;2022-08-03T11:53:52;3.17;;;3.03;;
5878;SDS011;2965;42.640;23.370;2022-08-03T11:56:26;2.83;;;2.73;;
5878;SDS011;2965;42.640;23.370;2022-08-03T11:58:53;2.90;;;2.80;;
5878;SDS011;2965;42.640;23.370;2022-08-03T12:01:21;2.93;;;2.83;;
5878;SDS011;2965;42.640;23.370;2022-08-03T12:03:48;3.73;;;3.53;;
5878;SDS011;2965;42.640;23.370;2022-08-03T12:06:15;3.10;;;3.00;;
5878;SDS011;2965;42.640;23.370;2022-08-03T12:08:42;3.33;;;3.13;;
5878;SDS011;2965;42.640;23.370;2022-08-03T12:11:09;3.00;;;2.90;;
5878;SDS011;2965;42.640;23.370;2022-08-03T12:13:37;4.80;;;2.87;;
5878;SDS011;2965;42.640;23.370;2022-08-03T12:16:06;3.43;;;3.20;;
5878;SDS011;2965;42.640;23.370;2022-08-03T12:18:32;3.37;;;3.27;;
5878;SDS011;2965;42.640;23.370;2022-08-03T12:21:04;3.00;;;2.90;;
5878;SDS011;2965;42.640;23.370;2022-08-03T12:23:32;2.80;;;2.70;;
5878;SDS011;2965;42.640;23.370;2022-08-03T12:26:02;3.10;;;3.00;;
5878;SDS011;2965;42.640;23.370;2022-08-03T12:28:29;3.10;;;3.00;;
5878;SDS011;2965;42.640;23.370;2022-08-03T12:30:55;3.30;;;3.20;;
5878;SDS011;2965;42.640;23.370;2022-08-03T12:33:26;3.20;;;3.10;;
5878;SDS011;2965;42.640;23.370;2022-08-03T12:36:08;4.83;;;3.57;;
5878;SDS011;2965;42.640;23.370;2022-08-03T12:38:37;4.57;;;3.13;;
5878;SDS011;2965;42.640;23.370;2022-08-03T12:41:09;2.77;;;2.67;;
5878;SDS011;2965;42.640;23.370;2022-08-03T12:43:46;5.60;;;2.83;;
5878;SDS011;2965;42.640;23.370;2022-08-03T12:46:15;3.50;;;3.20;;
5878;SDS011;2965;42.640;23.370;2022-08-03T12:51:31;3.37;;;3.27;;
5878;SDS011;2965;42.640;23.370;2022-08-03T12:54:02;2.90;;;2.80;;
5878;SDS011;2965;42.640;23.370;2022-08-03T12:56:29;3.43;;;3.33;;
5878;SDS011;2965;42.640;23.370;2022-08-03T12:58:54;3.40;;;3.20;;
5878;SDS011;2965;42.640;23.370;2022-08-03T13:01:20;3.50;;;3.40;;
5878;SDS011;2965;42.640;23.370;2022-08-03T13:03:48;2.93;;;2.83;;
5878;SDS011;2965;42.640;23.370;2022-08-03T13:06:18;3.20;;;3.10;;
5878;SDS011;2965;42.640;23.370;2022-08-03T13:08:48;2.90;;;2.80;;
5878;SDS011;2965;42.640;23.370;2022-08-03T13:11:24;2.93;;;2.83;;
5878;SDS011;2965;42.640;23.370;2022-08-03T13:13:52;3.30;;;3.10;;
5878;SDS011;2965;42.640;23.370;2022-08-03T13:16:19;3.20;;;3.10;;
5878;SDS011;2965;42.640;23.370;2022-08-03T13:18:48;3.30;;;3.20;;
5878;SDS011;2965;42.640;23.370;2022-08-03T13:21:15;3.03;;;2.93;;
5878;SDS011;2965;42.640;23.370;2022-08-03T13:23:41;3.30;;;3.20;;
5878;SDS011;2965;42.640;23.370;2022-08-03T13:26:07;5.33;;;3.27;;
5878;SDS011;2965;42.640;23.370;2022-08-03T13:28:33;3.70;;;3.40;;
5878;SDS011;2965;42.640;23.370;2022-08-03T13:30:59;5.23;;;3.50;;
5878;SDS011;2965;42.640;23.370;2022-08-03T13:33:25;2.93;;;2.83;;
5878;SDS011;2965;42.640;23.370;2022-08-03T13:35:51;3.40;;;3.20;;
5878;SDS011;2965;42.640;23.370;2022-08-03T13:38:17;8.33;;;3.70;;
5878;SDS011;2965;42.640;23.370;2022-08-03T13:40:42;7.90;;;3.70;;
5878;SDS011;2965;42.640;23.370;2022-08-03T13:43:08;4.27;;;4.07;;
5878;SDS011;2965;42.640;23.370;2022-08-03T13:45:33;4.70;;;3.60;;
5878;SDS011;2965;42.640;23.370;2022-08-03T13:47:59;3.87;;;3.67;;
5878;SDS011;2965;42.640;23.370;2022-08-03T13:50:25;3.70;;;3.60;;
5878;SDS011;2965;42.640;23.370;2022-08-03T13:52:50;3.80;;;3.70;;
5878;SDS011;2965;42.640;23.370;2022-08-03T13:55:16;3.57;;;3.47;;
5878;SDS011;2965;42.640;23.370;2022-08-03T13:57:41;4.10;;;3.90;;
5878;SDS011;2965;42.640;23.370;2022-08-03T14:00:07;3.57;;;3.37;;
5878;SDS011;2965;42.640;23.370;2022-08-03T14:02:33;3.70;;;3.60;;
5878;SDS011;2965;42.640;23.370;2022-08-03T14:04:58;4.20;;;3.90;;
5878;SDS011;2965;42.640;23.370;2022-08-03T14:07:24;3.90;;;3.77;;
5878;SDS011;2965;42.640;23.370;2022-08-03T14:09:49;3.37;;;3.27;;
5878;SDS011;2965;42.640;23.370;2022-08-03T14:12:15;3.67;;;3.40;;
5878;SDS011;2965;42.640;23.370;2022-08-03T14:14:40;4.03;;;3.93;;
5878;SDS011;2965;42.640;23.370;2022-08-03T14:17:05;6.80;;;4.30;;
5878;SDS011;2965;42.640;23.370;2022-08-03T14:19:31;3.50;;;3.30;;
5878;SDS011;2965;42.640;23.370;2022-08-03T14:21:57;3.67;;;3.57;;
5878;SDS011;2965;42.640;23.370;2022-08-03T14:24:22;4.10;;;3.77;;
5878;SDS011;2965;42.640;23.370;2022-08-03T14:26:48;4.40;;;4.30;;
5878;SDS011;2965;42.640;23.370;2022-08-03T14:29:13;4.10;;;4.00;;
5878;SDS011;2965;42.640;23.370;2022-08-03T14:31:38;4.40;;;4.20;;
5878;SDS011;2965;42.640;23.370;2022-08-03T14:34:04;4.20;;;4.10;;
5878;SDS011;2965;42.640;23.370;2022-08-03T14:36:29;4.40;;;4.10;;
5878;SDS011;2965;42.640;23.370;2022-08-03T14:38:55;3.77;;;3.57;;
5878;SDS011;2965;42.640;23.370;2022-08-03T14:41:20;3.30;;;3.20;;
5878;SDS011;2965;42.640;23.370;2022-08-03T14:43:46;3.40;;;3.30;;
5878;SDS011;2965;42.640;23.370;2022-08-03T14:46:11;3.80;;;3.60;;
5878;SDS011;2965;42.640;23.370;2022-08-03T14:48:37;3.83;;;3.53;;
5878;SDS011;2965;42.640;23.370;2022-08-03T14:51:03;3.20;;;3.10;;
5878;SDS011;2965;42.640;23.370;2022-08-03T14:53:29;3.30;;;3.20;;
5878;SDS011;2965;42.640;23.370;2022-08-03T14:55:55;3.50;;;3.40;;
5878;SDS011;2965;42.640;23.370;2022-08-03T14:58:21;3.43;;;3.33;;
5878;SDS011;2965;42.640;23.370;2022-08-03T15:00:49;3.30;;;3.20;;
5878;SDS011;2965;42.640;23.370;2022-08-03T15:03:15;3.30;;;3.20;;
5878;SDS011;2965;42.640;23.370;2022-08-03T15:05:44;3.30;;;3.20;;
5878;SDS011;2965;42.640;23.370;2022-08-03T15:08:09;3.23;;;3.13;;
5878;SDS011;2965;42.640;23.370;2022-08-03T15:10:35;4.03;;;3.83;;
5878;SDS011;2965;42.640;23.370;2022-08-03T15:13:01;2.90;;;2.80;;
5878;SDS011;2965;42.640;23.370;2022-08-03T15:15:26;4.40;;;4.00;;
5878;SDS011;2965;42.640;23.370;2022-08-03T15:17:51;3.87;;;3.53;;
5878;SDS011;2965;42.640;23.370;2022-08-03T15:20:17;3.20;;;3.10;;
5878;SDS011;2965;42.640;23.370;2022-08-03T15:22:42;5.17;;;4.87;;
5878;SDS011;2965;42.640;23.370;2022-08-03T15:25:08;4.63;;;4.33;;
5878;SDS011;2965;42.640;23.370;2022-08-03T15:27:33;5.00;;;4.80;;
5878;SDS011;2965;42.640;23.370;2022-08-03T15:29:59;4.00;;;3.80;;
5878;SDS011;2965;42.640;23.370;2022-08-03T15:32:24;2.87;;;2.77;;
5878;SDS011;2965;42.640;23.370;2022-08-03T15:34:50;3.53;;;3.10;;
5878;SDS011;2965;42.640;23.370;2022-08-03T15:37:16;3.03;;;2.93;;
5878;SDS011;2965;42.640;23.370;2022-08-03T15:39:42;4.33;;;3.90;;
5878;SDS011;2965;42.640;23.370;2022-08-03T15:42:08;4.03;;;3.83;;
5878;SDS011;2965;42.640;23.370;2022-08-03T15:44:33;4.80;;;4.50;;
5878;SDS011;2965;42.640;23.370;2022-08-03T15:46:59;5.33;;;4.87;;
5878;SDS011;2965;42.640;23.370;2022-08-03T15:49:24;5.60;;;5.20;;
5878;SDS011;2965;42.640;23.370;2022-08-03T15:51:49;6.10;;;5.70;;
5878;SDS011;2965;42.640;23.370;2022-08-03T15:54:15;5.10;;;4.70;;